Time;durP1;ratioP1;P1;durP2;ratioP2;P2;SDS_P1;SDS_P2;PMS_P1;PMS_P2;Temp;Humidity;BMP_temperature;BMP_pressure;BME280_temperature;BME280_humidity;BME280_pressure;Samples;Min_cycle;Max_cycle;Signal;HPM_P1;HPM_P2
2022/08/03 00:01:19;;;;;;;;;;;18.20;99.90;;;;;;5045934;28;19920;-62
2022/08/03 00:03:45;;;;;;;;;;;18.30;99.90;;;;;;5045898;28;20561;-62
2022/08/03 00:06:10;;;;;;;;;;;18.20;99.90;;;;;;5045693;28;19923;-62
2022/08/03 00:08:36;;;;;;;;;;;18.20;99.90;;;;;;5042622;28;19925;-61
2022/08/03 00:11:01;;;;;;;;;;;18.20;99.90;;;;;;5030901;28;20868;-62
2022/08/03 00:13:27;;;;;;;;;;;18.20;99.90;;;;;;5048573;28;20111;-63
2022/08/03 00:15:53;;;;;;;;;;;18.20;99.90;;;;;;5046994;28;20008;-61
2022/08/03 00:18:18;;;;;;;;;;;18.20;99.90;;;;;;5043539;28;19918;-62
2022/08/03 00:20:44;;;;;;;;;;;18.20;99.90;;;;;;5042163;28;19921;-61
2022/08/03 00:23:10;;;;;;;;;;;18.20;99.90;;;;;;5047232;28;20034;-62
2022/08/03 00:25:35;;;;;;;;;;;18.20;99.90;;;;;;5008608;28;19951;-62
2022/08/03 00:28:02;;;;;;;;;;;18.20;99.90;;;;;;5044866;28;19917;-62
2022/08/03 00:30:27;;;;;;;;;;;18.20;99.90;;;;;;5048850;28;19917;-63
2022/08/03 00:32:53;;;;;;;;;;;18.20;99.90;;;;;;5046127;28;19982;-61
2022/08/03 00:35:19;;;;;;;;;;;18.20;99.90;;;;;;5041282;28;20055;-62
2022/08/03 00:37:44;;;;;;;;;;;18.20;99.90;;;;;;5050338;28;19923;-61
2022/08/03 00:40:10;;;;;;;;;;;18.20;99.90;;;;;;5044013;28;20501;-62
2022/08/03 00:42:45;;;;;;;;;;;18.20;99.90;;;;;;5047221;28;19952;-62
2022/08/03 00:45:10;;;;;;;;;;;18.30;99.90;;;;;;5043763;28;19917;-62
2022/08/03 00:47:36;;;;;;;;;;;18.30;99.90;;;;;;5047896;28;19924;-62
2022/08/03 00:50:02;;;;;;;;;;;18.30;99.90;;;;;;5044121;28;20394;-62
2022/08/03 00:52:27;;;;;;;;;;;18.30;99.90;;;;;;5050129;28;19931;-61
2022/08/03 00:54:53;;;;;;;;;;;18.30;99.90;;;;;;5046708;28;19924;-61
2022/08/03 00:57:18;;;;;;;;;;;18.30;99.90;;;;;;5046868;28;20007;-61
2022/08/03 00:59:44;;;;;;;;;;;18.30;99.90;;;;;;5025845;28;19925;-62
2022/08/03 01:02:09;;;;;;;;;;;18.30;99.90;;;;;;5039179;28;19925;-62
2022/08/03 01:04:35;;;;;;;;;;;18.30;99.90;;;;;;5039919;28;20280;-62
2022/08/03 01:07:16;;;;;;;;;;;18.20;99.90;;;;;;5044963;28;19917;-61
2022/08/03 01:09:51;;;;;;;;;;;18.20;99.90;;;;;;5042991;28;19925;-61
2022/08/03 01:12:27;;;;;;;;;;;18.10;99.90;;;;;;5046416;28;19951;-62
2022/08/03 01:15:09;;;;;;;;;;;18.10;99.90;;;;;;5028864;28;20696;-62
2022/08/03 01:17:48;;;;;;;;;;;18.00;99.90;;;;;;5039058;28;19924;-61
2022/08/03 01:20:15;;;;;;;;;;;18.00;99.90;;;;;;5042678;28;19925;-62
2022/08/03 01:23:02;;;;;;;;;;;17.90;99.90;;;;;;5046710;28;20368;-62
2022/08/03 01:25:45;;;;;;;;;;;17.80;99.90;;;;;;5048894;28;19923;-61
2022/08/03 01:28:11;;;;;;;;;;;17.70;99.90;;;;;;5049016;28;19959;-62
2022/08/03 01:30:39;;;;;;;;;;;17.60;99.90;;;;;;5031913;28;19963;-61
2022/08/03 01:33:06;;;;;;;;;;;17.60;99.90;;;;;;5051970;28;19921;-62
2022/08/03 01:35:41;;;;;;;;;;;17.50;99.90;;;;;;5042714;28;20550;-61
2022/08/03 01:38:21;;;;;;;;;;;17.50;99.90;;;;;;5047475;28;19921;-61
2022/08/03 01:40:47;;;;;;;;;;;17.50;99.90;;;;;;5044815;28;19925;-62
2022/08/03 01:43:16;;;;;;;;;;;17.50;99.90;;;;;;5044532;28;20356;-62
2022/08/03 01:45:42;;;;;;;;;;;17.40;99.90;;;;;;5045081;28;19924;-61
2022/08/03 01:48:10;;;;;;;;;;;17.40;99.90;;;;;;5050721;28;20308;-62
2022/08/03 01:50:35;;;;;;;;;;;17.40;99.90;;;;;;5046412;28;19962;-62
2022/08/03 01:53:01;;;;;;;;;;;17.40;99.90;;;;;;5042085;28;20299;-61
2022/08/03 01:55:27;;;;;;;;;;;17.40;99.90;;;;;;5048584;28;20343;-61
2022/08/03 01:57:54;;;;;;;;;;;17.40;99.90;;;;;;5042287;28;20029;-62
2022/08/03 02:00:19;;;;;;;;;;;17.40;99.90;;;;;;5041973;28;19974;-62
2022/08/03 02:02:46;;;;;;;;;;;17.40;99.90;;;;;;5046448;28;20376;-62
2022/08/03 02:05:13;;;;;;;;;;;17.40;99.90;;;;;;5044626;28;20372;-63
2022/08/03 02:07:39;;;;;;;;;;;17.40;99.90;;;;;;5046185;28;20375;-62
2022/08/03 02:10:05;;;;;;;;;;;17.40;99.90;;;;;;5045316;28;19916;-62
2022/08/03 02:12:33;;;;;;;;;;;17.40;99.90;;;;;;5045658;28;19916;-61
2022/08/03 02:14:59;;;;;;;;;;;17.50;99.90;;;;;;5046605;28;19926;-61
2022/08/03 02:17:25;;;;;;;;;;;17.50;99.90;;;;;;5050249;28;19917;-63
2022/08/03 02:19:51;;;;;;;;;;;17.50;99.90;;;;;;5045671;28;19928;-63
2022/08/03 02:22:16;;;;;;;;;;;17.50;99.90;;;;;;5026008;28;19920;-62
2022/08/03 02:24:42;;;;;;;;;;;17.40;99.90;;;;;;5047909;28;19963;-61
2022/08/03 02:27:19;;;;;;;;;;;17.50;99.90;;;;;;5042017;28;19924;-62
2022/08/03 02:29:48;;;;;;;;;;;17.50;99.90;;;;;;5027457;28;19920;-62
2022/08/03 02:32:15;;;;;;;;;;;17.40;99.90;;;;;;5043296;28;20288;-61
2022/08/03 02:34:43;;;;;;;;;;;17.40;99.90;;;;;;5044004;28;20018;-61
2022/08/03 02:37:09;;;;;;;;;;;17.40;99.90;;;;;;5048345;28;19938;-61
2022/08/03 02:39:35;;;;;;;;;;;17.40;99.90;;;;;;5046465;28;20015;-61
2022/08/03 02:42:01;;;;;;;;;;;17.40;99.90;;;;;;5046166;28;20015;-61
2022/08/03 02:44:27;;;;;;;;;;;17.40;99.90;;;;;;5050449;28;20513;-62
2022/08/03 02:46:59;;;;;;;;;;;17.40;99.90;;;;;;5029138;28;19924;-62
2022/08/03 02:49:26;;;;;;;;;;;17.40;99.90;;;;;;5025219;28;19916;-62
2022/08/03 02:51:53;;;;;;;;;;;17.40;99.90;;;;;;5044560;28;19920;-61
2022/08/03 02:54:20;;;;;;;;;;;17.50;99.90;;;;;;5044065;28;20003;-61
2022/08/03 02:56:47;;;;;;;;;;;17.50;99.90;;;;;;5028487;28;19940;-61
2022/08/03 02:59:13;;;;;;;;;;;17.50;99.90;;;;;;5046666;28;19960;-62
2022/08/03 03:01:38;;;;;;;;;;;17.40;99.90;;;;;;5024470;28;19924;-62
2022/08/03 03:04:04;;;;;;;;;;;17.40;99.90;;;;;;5044295;28;19926;-60
2022/08/03 03:06:30;;;;;;;;;;;17.40;99.90;;;;;;5045323;28;19917;-62
2022/08/03 03:08:56;;;;;;;;;;;17.40;99.90;;;;;;5045018;28;20011;-62
2022/08/03 03:11:22;;;;;;;;;;;17.40;99.90;;;;;;5044439;28;19921;-63
2022/08/03 03:13:49;;;;;;;;;;;17.30;99.90;;;;;;5048206;28;20368;-62
2022/08/03 03:16:15;;;;;;;;;;;17.30;99.90;;;;;;5047409;28;19917;-62
2022/08/03 03:18:43;;;;;;;;;;;17.20;99.90;;;;;;5045537;28;19924;-62
2022/08/03 03:21:09;;;;;;;;;;;17.20;99.90;;;;;;5043314;28;19982;-61
2022/08/03 03:23:36;;;;;;;;;;;17.20;99.90;;;;;;5049431;28;19924;-62
2022/08/03 03:26:01;;;;;;;;;;;17.30;99.90;;;;;;5050064;28;19917;-61
2022/08/03 03:28:27;;;;;;;;;;;17.30;99.90;;;;;;5044469;28;19923;-61
2022/08/03 03:30:53;;;;;;;;;;;17.30;99.90;;;;;;5048165;28;19971;-63
2022/08/03 03:33:19;;;;;;;;;;;17.30;99.90;;;;;;5047125;28;19917;-61
2022/08/03 03:35:45;;;;;;;;;;;17.30;99.90;;;;;;5026575;28;19998;-61
2022/08/03 03:38:11;;;;;;;;;;;17.30;99.90;;;;;;5048272;28;19923;-61
2022/08/03 03:40:37;;;;;;;;;;;17.30;99.90;;;;;;5046434;28;19920;-62
2022/08/03 03:43:06;;;;;;;;;;;17.30;99.90;;;;;;5049761;28;19927;-61
2022/08/03 03:45:33;;;;;;;;;;;17.30;99.90;;;;;;5044737;28;19917;-60
2022/08/03 03:47:59;;;;;;;;;;;17.30;99.90;;;;;;5043819;28;20427;-62
2022/08/03 03:50:25;;;;;;;;;;;17.30;99.90;;;;;;5039146;28;19921;-61
2022/08/03 03:52:50;;;;;;;;;;;17.30;99.90;;;;;;5040884;28;19921;-61
2022/08/03 03:55:16;;;;;;;;;;;17.40;99.90;;;;;;5032477;28;20007;-61
2022/08/03 03:57:42;;;;;;;;;;;17.30;99.90;;;;;;5041010;28;19917;-60
2022/08/03 04:00:08;;;;;;;;;;;17.40;99.90;;;;;;5042182;28;20894;-62
2022/08/03 04:02:33;;;;;;;;;;;17.40;99.90;;;;;;5045296;28;19921;-61
2022/08/03 04:13:23;;;;;;;;;;;17.30;99.90;;;;;;5039629;28;20302;-61
2022/08/03 04:15:49;;;;;;;;;;;17.40;99.90;;;;;;5048249;28;19970;-61
2022/08/03 04:18:15;;;;;;;;;;;17.40;99.90;;;;;;5045529;28;19917;-62
2022/08/03 04:20:43;;;;;;;;;;;17.40;99.90;;;;;;5043696;28;19924;-61
2022/08/03 04:23:10;;;;;;;;;;;17.40;99.90;;;;;;5045874;28;19924;-60
2022/08/03 04:25:36;;;;;;;;;;;17.30;99.90;;;;;;5046944;28;19970;-61
2022/08/03 04:28:03;;;;;;;;;;;17.40;99.90;;;;;;5028139;28;19922;-62
2022/08/03 04:30:30;;;;;;;;;;;17.40;99.90;;;;;;5046636;28;19999;-60
2022/08/03 04:32:56;;;;;;;;;;;17.40;99.90;;;;;;5045704;28;19927;-61
2022/08/03 04:35:23;;;;;;;;;;;17.40;99.90;;;;;;5045129;28;19921;-62
2022/08/03 04:37:50;;;;;;;;;;;17.40;99.90;;;;;;5042387;28;19921;-61
2022/08/03 04:40:35;;;;;;;;;;;17.50;99.90;;;;;;5040004;28;19927;-61
2022/08/03 04:43:01;;;;;;;;;;;17.50;99.90;;;;;;5046042;28;20383;-61
2022/08/03 04:45:29;;;;;;;;;;;17.50;99.90;;;;;;5033155;28;19991;-60
2022/08/03 04:47:54;;;;;;;;;;;17.50;99.90;;;;;;5032631;28;19964;-62
2022/08/03 04:50:21;;;;;;;;;;;17.60;99.90;;;;;;5044701;28;20695;-61
2022/08/03 04:52:47;;;;;;;;;;;17.60;99.90;;;;;;5052299;28;19921;-61
2022/08/03 04:55:24;;;;;;;;;;;17.70;99.90;;;;;;5047487;28;19986;-61
2022/08/03 04:57:49;;;;;;;;;;;17.70;99.90;;;;;;5048241;28;19917;-62
2022/08/03 05:00:15;;;;;;;;;;;17.80;99.90;;;;;;5044642;28;19927;-62
2022/08/03 05:02:42;;;;;;;;;;;17.80;99.90;;;;;;5038473;28;19986;-62
2022/08/03 05:05:08;;;;;;;;;;;17.80;99.90;;;;;;5041982;28;19924;-62
2022/08/03 05:07:33;;;;;;;;;;;17.90;99.90;;;;;;5048483;28;19921;-62
2022/08/03 05:09:59;;;;;;;;;;;18.00;99.90;;;;;;5047866;28;19929;-60
2022/08/03 05:12:24;;;;;;;;;;;18.00;99.90;;;;;;5047762;28;19932;-61
2022/08/03 05:14:50;;;;;;;;;;;18.10;99.90;;;;;;5046974;28;20000;-61
2022/08/03 05:17:15;;;;;;;;;;;18.20;99.90;;;;;;5052331;28;20004;-60
2022/08/03 05:19:40;;;;;;;;;;;18.30;99.90;;;;;;5041000;28;19925;-60
2022/08/03 05:22:06;;;;;;;;;;;18.30;99.90;;;;;;5028709;28;20008;-62
2022/08/03 05:24:31;;;;;;;;;;;18.40;99.90;;;;;;5035850;28;20557;-62
2022/08/03 05:26:57;;;;;;;;;;;18.50;99.90;;;;;;5023214;28;19920;-62
2022/08/03 05:29:22;;;;;;;;;;;18.70;99.90;;;;;;5045865;28;19920;-61
2022/08/03 05:31:48;;;;;;;;;;;18.80;99.90;;;;;;5051683;28;19917;-61
2022/08/03 05:34:13;;;;;;;;;;;18.90;99.90;;;;;;5046913;28;20296;-62
2022/08/03 05:36:39;;;;;;;;;;;19.00;99.90;;;;;;5048806;28;20027;-61
2022/08/03 05:39:04;;;;;;;;;;;19.10;99.90;;;;;;5046362;28;19928;-62
2022/08/03 05:41:30;;;;;;;;;;;19.20;99.90;;;;;;5048676;28;20004;-61
2022/08/03 05:43:55;;;;;;;;;;;19.30;99.90;;;;;;5025337;28;19944;-61
2022/08/03 05:46:21;;;;;;;;;;;19.40;99.90;;;;;;5051792;28;19920;-62
2022/08/03 05:48:47;;;;;;;;;;;19.50;99.90;;;;;;5037695;28;20023;-61
2022/08/03 05:51:12;;;;;;;;;;;19.60;99.90;;;;;;5043812;28;20008;-62
2022/08/03 05:53:39;;;;;;;;;;;19.70;99.90;;;;;;5050089;28;19916;-61
2022/08/03 05:56:04;;;;;;;;;;;19.70;99.90;;;;;;5047303;28;19917;-62
2022/08/03 05:58:30;;;;;;;;;;;19.80;99.90;;;;;;5047915;28;19931;-63
2022/08/03 06:00:55;;;;;;;;;;;19.90;99.90;;;;;;5042645;28;19924;-61
2022/08/03 06:03:21;;;;;;;;;;;20.00;99.90;;;;;;5035371;28;19921;-63
2022/08/03 06:05:46;;;;;;;;;;;20.00;99.90;;;;;;5040695;28;19917;-62
2022/08/03 06:08:12;;;;;;;;;;;20.00;99.90;;;;;;5038245;28;20004;-62
2022/08/03 06:10:37;;;;;;;;;;;20.00;99.90;;;;;;5043834;28;19916;-62
2022/08/03 06:13:03;;;;;;;;;;;20.20;99.90;;;;;;5047704;28;19921;-62
2022/08/03 06:15:29;;;;;;;;;;;20.40;99.90;;;;;;5046433;28;20025;-62
2022/08/03 06:17:56;;;;;;;;;;;20.60;99.90;;;;;;5047504;28;19920;-62
2022/08/03 06:20:21;;;;;;;;;;;20.60;99.90;;;;;;5039265;28;19925;-63
2022/08/03 06:22:47;;;;;;;;;;;20.70;99.90;;;;;;5047678;28;20011;-62
2022/08/03 06:25:13;;;;;;;;;;;20.90;99.90;;;;;;5046210;28;19921;-62
2022/08/03 06:27:39;;;;;;;;;;;21.10;99.90;;;;;;5045870;28;19917;-62
2022/08/03 06:30:08;;;;;;;;;;;21.20;99.90;;;;;;5042376;28;19924;-61
2022/08/03 06:32:33;;;;;;;;;;;21.20;99.90;;;;;;5036991;28;20312;-61
2022/08/03 06:34:59;;;;;;;;;;;21.20;99.90;;;;;;5044940;28;19921;-62
2022/08/03 06:37:25;;;;;;;;;;;21.20;99.90;;;;;;5036556;28;20283;-62
2022/08/03 06:39:51;;;;;;;;;;;21.20;99.90;;;;;;5028852;28;19925;-62
2022/08/03 06:42:17;;;;;;;;;;;21.30;99.90;;;;;;5013869;28;20396;-63
2022/08/03 06:44:42;;;;;;;;;;;21.30;99.90;;;;;;5046048;28;19916;-61
2022/08/03 06:47:08;;;;;;;;;;;21.40;99.90;;;;;;5040289;28;19924;-61
2022/08/03 06:49:34;;;;;;;;;;;21.50;99.90;;;;;;5040924;28;19931;-62
2022/08/03 06:51:59;;;;;;;;;;;21.60;99.90;;;;;;5043515;28;19967;-61
2022/08/03 06:54:24;;;;;;;;;;;21.70;99.90;;;;;;5046923;28;19916;-62
2022/08/03 06:56:50;;;;;;;;;;;21.90;99.90;;;;;;5048234;28;19923;-62
2022/08/03 06:59:15;;;;;;;;;;;21.90;99.90;;;;;;5048948;28;19979;-62
2022/08/03 07:01:41;;;;;;;;;;;21.90;99.90;;;;;;5044224;28;19920;-62
2022/08/03 07:04:06;;;;;;;;;;;21.80;99.90;;;;;;5041825;28;20802;-63
2022/08/03 07:06:33;;;;;;;;;;;21.90;99.90;;;;;;5043373;28;19917;-60
2022/08/03 07:08:58;;;;;;;;;;;22.00;99.90;;;;;;5038727;28;19917;-61
2022/08/03 07:11:24;;;;;;;;;;;21.90;99.90;;;;;;5049818;28;19936;-62
2022/08/03 07:13:49;;;;;;;;;;;21.70;99.90;;;;;;5038966;28;20004;-62
2022/08/03 07:16:15;;;;;;;;;;;21.90;99.90;;;;;;5044374;28;19956;-63
2022/08/03 07:18:40;;;;;;;;;;;21.90;99.90;;;;;;5042615;28;20529;-61
2022/08/03 07:21:08;;;;;;;;;;;22.00;99.90;;;;;;5023608;28;19975;-62
2022/08/03 07:23:33;;;;;;;;;;;22.10;99.90;;;;;;5046806;28;19981;-62
2022/08/03 07:25:59;;;;;;;;;;;22.20;99.90;;;;;;5041343;28;20019;-62
2022/08/03 07:28:24;;;;;;;;;;;22.50;99.90;;;;;;5046570;28;20584;-63
2022/08/03 07:30:50;;;;;;;;;;;22.60;99.90;;;;;;5050104;28;19923;-62
2022/08/03 07:33:15;;;;;;;;;;;22.60;99.90;;;;;;5049625;28;20323;-63
2022/08/03 07:35:41;;;;;;;;;;;22.80;99.90;;;;;;5047220;28;20652;-62
2022/08/03 07:38:06;;;;;;;;;;;23.00;98.90;;;;;;5046821;28;19923;-62
2022/08/03 07:40:32;;;;;;;;;;;23.20;98.40;;;;;;5037643;28;19924;-62
2022/08/03 07:42:58;;;;;;;;;;;23.40;96.70;;;;;;5043693;28;19924;-64
2022/08/03 07:45:25;;;;;;;;;;;23.40;97.30;;;;;;5047297;28;19924;-63
2022/08/03 07:47:50;;;;;;;;;;;23.40;96.60;;;;;;5038581;28;19917;-62
2022/08/03 07:50:16;;;;;;;;;;;23.70;96.20;;;;;;5042906;28;20141;-62
2022/08/03 07:52:48;;;;;;;;;;;23.90;95.90;;;;;;5046601;28;19923;-63
2022/08/03 07:55:14;;;;;;;;;;;24.20;95.10;;;;;;5045369;28;19924;-63
2022/08/03 07:57:39;;;;;;;;;;;24.40;94.80;;;;;;5026296;28;20303;-63
2022/08/03 08:00:07;;;;;;;;;;;24.50;92.70;;;;;;5047005;28;19921;-63
2022/08/03 08:02:33;;;;;;;;;;;24.70;93.10;;;;;;5043500;28;19917;-63
2022/08/03 08:04:58;;;;;;;;;;;24.60;92.30;;;;;;5036168;28;19962;-64
2022/08/03 08:07:25;;;;;;;;;;;24.90;92.30;;;;;;5044326;28;20368;-63
2022/08/03 08:09:50;;;;;;;;;;;25.10;91.20;;;;;;5050036;28;20611;-64
2022/08/03 08:12:16;;;;;;;;;;;25.30;92.10;;;;;;5046882;28;19924;-61
2022/08/03 08:14:44;;;;;;;;;;;25.70;91.20;;;;;;5043124;28;19924;-60
2022/08/03 08:17:09;;;;;;;;;;;25.70;88.50;;;;;;5031157;28;20258;-60
2022/08/03 08:19:35;;;;;;;;;;;25.80;90.00;;;;;;5047659;28;19927;-61
2022/08/03 08:22:01;;;;;;;;;;;26.20;88.40;;;;;;5042098;28;19921;-59
2022/08/03 08:24:29;;;;;;;;;;;26.30;86.10;;;;;;5030776;28;20007;-61
2022/08/03 08:26:55;;;;;;;;;;;26.60;86.10;;;;;;5044454;28;19931;-61
2022/08/03 08:29:22;;;;;;;;;;;27.00;84.40;;;;;;5031533;28;19916;-61
2022/08/03 08:31:48;;;;;;;;;;;27.10;81.50;;;;;;5045634;28;20332;-61
2022/08/03 08:34:14;;;;;;;;;;;27.10;79.50;;;;;;5047206;28;19925;-60
2022/08/03 08:36:39;;;;;;;;;;;27.50;76.40;;;;;;5048209;28;19970;-61
2022/08/03 08:39:05;;;;;;;;;;;27.60;79.10;;;;;;5043445;28;19921;-61
2022/08/03 08:41:33;;;;;;;;;;;28.20;79.00;;;;;;5028879;28;19917;-62
2022/08/03 08:43:59;;;;;;;;;;;28.40;76.10;;;;;;5046658;28;19920;-61
2022/08/03 08:46:24;;;;;;;;;;;28.20;77.50;;;;;;5022944;28;20304;-63
2022/08/03 08:48:51;;;;;;;;;;;28.20;77.50;;;;;;5039982;28;19916;-63
2022/08/03 08:51:18;;;;;;;;;;;28.30;74.40;;;;;;5046772;28;20360;-65
2022/08/03 08:53:46;;;;;;;;;;;28.70;73.30;;;;;;5047413;28;19920;-63
2022/08/03 08:56:16;;;;;;;;;;;28.70;74.00;;;;;;5050680;28;19940;-63
2022/08/03 08:58:46;;;;;;;;;;;29.00;71.20;;;;;;5048447;28;19917;-63
2022/08/03 09:01:11;;;;;;;;;;;28.90;72.80;;;;;;5004109;28;19921;-61
2022/08/03 09:03:37;;;;;;;;;;;29.10;70.90;;;;;;5043400;28;20272;-63
2022/08/03 09:06:03;;;;;;;;;;;29.00;69.40;;;;;;5041087;28;19924;-60
2022/08/03 09:08:29;;;;;;;;;;;29.40;67.40;;;;;;5014051;28;19955;-61
2022/08/03 09:10:54;;;;;;;;;;;29.40;71.10;;;;;;5013256;28;19925;-62
2022/08/03 09:13:20;;;;;;;;;;;29.40;66.90;;;;;;5022071;28;20292;-61
2022/08/03 09:15:46;;;;;;;;;;;29.90;69.70;;;;;;5049952;28;20385;-62
2022/08/03 09:18:12;;;;;;;;;;;30.40;65.80;;;;;;5031551;28;19917;-63
2022/08/03 09:20:38;;;;;;;;;;;30.80;66.90;;;;;;5043339;28;20346;-61
2022/08/03 09:23:07;;;;;;;;;;;31.60;64.50;;;;;;5050446;28;19924;-61
2022/08/03 09:25:34;;;;;;;;;;;31.40;64.40;;;;;;5050280;28;19962;-61
2022/08/03 09:28:05;;;;;;;;;;;31.50;61.00;;;;;;5032347;28;19971;-61
2022/08/03 09:30:31;;;;;;;;;;;31.80;59.80;;;;;;5035378;28;19952;-61
2022/08/03 09:33:03;;;;;;;;;;;31.80;60.20;;;;;;5050167;28;19924;-62
2022/08/03 09:35:29;;;;;;;;;;;31.70;57.80;;;;;;5038202;28;20265;-61
2022/08/03 09:38:07;;;;;;;;;;;32.00;57.00;;;;;;5049007;28;19943;-62
2022/08/03 09:40:34;;;;;;;;;;;31.90;57.70;;;;;;5051340;28;20134;-62
2022/08/03 09:43:00;;;;;;;;;;;31.80;58.20;;;;;;5053441;28;20012;-61
2022/08/03 09:45:26;;;;;;;;;;;31.60;58.80;;;;;;5050626;28;20592;-62
2022/08/03 09:47:52;;;;;;;;;;;31.60;59.40;;;;;;5052144;28;20502;-61
2022/08/03 09:50:17;;;;;;;;;;;31.50;58.30;;;;;;5050241;28;20039;-61
2022/08/03 09:52:43;;;;;;;;;;;31.20;58.60;;;;;;5048918;28;20019;-62
2022/08/03 09:55:09;;;;;;;;;;;31.00;60.00;;;;;;5055060;28;19920;-62
2022/08/03 09:57:35;;;;;;;;;;;30.50;59.60;;;;;;5045751;28;19924;-61
2022/08/03 10:00:11;;;;;;;;;;;30.90;61.70;;;;;;5052312;28;20287;-62
2022/08/03 10:02:38;;;;;;;;;;;30.60;60.50;;;;;;5051462;28;20313;-63
2022/08/03 10:05:04;;;;;;;;;;;30.50;59.90;;;;;;5048896;28;20442;-61
2022/08/03 10:07:40;;;;;;;;;;;30.30;61.20;;;;;;5053101;28;19971;-61
2022/08/03 10:10:06;;;;;;;;;;;30.50;61.70;;;;;;5049432;28;19916;-63
2022/08/03 10:12:31;;;;;;;;;;;30.90;61.10;;;;;;5046295;28;19920;-61
2022/08/03 10:14:57;;;;;;;;;;;31.80;60.20;;;;;;5030621;28;19921;-61
2022/08/03 10:17:23;;;;;;;;;;;32.40;57.90;;;;;;5039624;28;19962;-62
2022/08/03 10:19:49;;;;;;;;;;;33.20;54.70;;;;;;5037418;28;19967;-66
2022/08/03 10:22:15;;;;;;;;;;;34.10;54.00;;;;;;5042550;28;19971;-62
2022/08/03 10:24:52;;;;;;;;;;;34.70;52.90;;;;;;5045894;28;19917;-63
2022/08/03 10:27:18;;;;;;;;;;;35.30;50.90;;;;;;5052695;28;19999;-63
2022/08/03 10:29:48;;;;;;;;;;;34.90;48.60;;;;;;5049619;28;19920;-61
2022/08/03 10:32:40;;;;;;;;;;;34.50;47.80;;;;;;5033473;28;19925;-61
2022/08/03 10:35:16;;;;;;;;;;;34.90;48.40;;;;;;5044631;28;20258;-63
2022/08/03 10:37:43;;;;;;;;;;;35.40;49.50;;;;;;5049744;28;20336;-62
2022/08/03 10:40:12;;;;;;;;;;;35.70;47.00;;;;;;5049220;28;20372;-61
2022/08/03 10:42:39;;;;;;;;;;;34.80;47.30;;;;;;5035596;28;20256;-62
2022/08/03 10:45:06;;;;;;;;;;;34.80;47.00;;;;;;5046533;28;19982;-61
2022/08/03 10:47:33;;;;;;;;;;;34.00;48.40;;;;;;5052201;28;20268;-63
2022/08/03 10:49:58;;;;;;;;;;;33.20;50.50;;;;;;5046783;28;19924;-62
2022/08/03 10:52:24;;;;;;;;;;;32.10;52.00;;;;;;5045608;28;19916;-62
2022/08/03 10:57:44;;;;;;;;;;;30.80;55.90;;;;;;5044333;28;19917;-63
2022/08/03 11:00:10;;;;;;;;;;;30.60;57.60;;;;;;5042239;28;20387;-62
2022/08/03 11:03:00;;;;;;;;;;;30.60;57.50;;;;;;5043904;28;19917;-63
2022/08/03 11:05:27;;;;;;;;;;;30.40;57.90;;;;;;5023403;28;19921;-62
2022/08/03 11:08:11;;;;;;;;;;;30.30;58.10;;;;;;5046961;28;20308;-62
2022/08/03 11:10:37;;;;;;;;;;;30.00;58.80;;;;;;5049793;28;19916;-61
2022/08/03 11:13:09;;;;;;;;;;;29.80;59.00;;;;;;5051374;28;19923;-60
2022/08/03 11:15:34;;;;;;;;;;;29.80;59.30;;;;;;5049510;28;20015;-61
2022/08/03 11:18:07;;;;;;;;;;;29.70;59.60;;;;;;5050322;28;20688;-61
2022/08/03 11:20:42;;;;;;;;;;;29.50;59.40;;;;;;5048361;28;19925;-61
2022/08/03 11:23:08;;;;;;;;;;;29.60;59.50;;;;;;5051104;28;19944;-62
2022/08/03 11:25:52;;;;;;;;;;;29.70;60.10;;;;;;5028471;28;19924;-61
2022/08/03 11:28:25;;;;;;;;;;;29.90;59.30;;;;;;5047606;28;19920;-62
2022/08/03 11:30:51;;;;;;;;;;;30.00;58.90;;;;;;5044911;28;19967;-61
2022/08/03 11:33:29;;;;;;;;;;;30.10;58.00;;;;;;5047217;28;20041;-60
2022/08/03 11:35:59;;;;;;;;;;;29.90;59.20;;;;;;5049338;28;19916;-61
2022/08/03 11:38:24;;;;;;;;;;;30.20;57.70;;;;;;5033338;28;19916;-63
2022/08/03 11:40:51;;;;;;;;;;;30.20;58.20;;;;;;5050571;28;20363;-63
2022/08/03 11:43:28;;;;;;;;;;;30.40;58.50;;;;;;5029962;28;20284;-62
2022/08/03 11:45:58;;;;;;;;;;;30.40;56.50;;;;;;5047783;28;20002;-61
2022/08/03 11:48:26;;;;;;;;;;;30.50;56.20;;;;;;5047553;28;19925;-63
2022/08/03 11:50:51;;;;;;;;;;;30.50;57.10;;;;;;5047637;28;19916;-62
2022/08/03 11:53:17;;;;;;;;;;;30.60;56.70;;;;;;5050795;28;20448;-61
2022/08/03 11:55:47;;;;;;;;;;;30.50;57.40;;;;;;5052267;28;20091;-62
2022/08/03 11:58:20;;;;;;;;;;;30.90;57.90;;;;;;5050535;28;19978;-61
2022/08/03 12:00:46;;;;;;;;;;;31.00;56.70;;;;;;5047924;28;20021;-62
2022/08/03 12:03:13;;;;;;;;;;;30.70;55.10;;;;;;5015318;28;19923;-63
2022/08/03 12:05:40;;;;;;;;;;;30.50;56.80;;;;;;5048123;28;19960;-59
2022/08/03 12:08:06;;;;;;;;;;;30.50;56.60;;;;;;5049687;28;19917;-62
2022/08/03 12:10:32;;;;;;;;;;;30.80;55.10;;;;;;5049221;28;19921;-61
2022/08/03 12:12:58;;;;;;;;;;;30.70;55.80;;;;;;5050446;28;19928;-62
2022/08/03 12:15:25;;;;;;;;;;;30.90;54.30;;;;;;5049193;28;19924;-62
2022/08/03 12:17:50;;;;;;;;;;;31.00;54.50;;;;;;5030873;28;19948;-63
2022/08/03 12:20:20;;;;;;;;;;;31.20;55.20;;;;;;5027679;28;20275;-61
2022/08/03 12:22:45;;;;;;;;;;;31.30;54.60;;;;;;5049443;28;19921;-61
2022/08/03 12:25:19;;;;;;;;;;;31.10;54.20;;;;;;5047789;28;19928;-61
2022/08/03 12:27:44;;;;;;;;;;;31.20;52.90;;;;;;5019782;28;19987;-62
2022/08/03 12:30:10;;;;;;;;;;;31.30;51.50;;;;;;5050021;28;20304;-61
2022/08/03 12:32:36;;;;;;;;;;;31.60;51.50;;;;;;5049514;28;20257;-62
2022/08/03 12:35:03;;;;;;;;;;;32.20;51.30;;;;;;5047388;28;19980;-61
2022/08/03 12:37:29;;;;;;;;;;;32.50;51.20;;;;;;5051394;28;19924;-61
2022/08/03 12:39:58;;;;;;;;;;;32.60;51.00;;;;;;5033269;28;19925;-63
2022/08/03 12:42:30;;;;;;;;;;;32.50;49.30;;;;;;5031225;28;19920;-62
2022/08/03 12:44:56;;;;;;;;;;;32.90;49.50;;;;;;5047939;28;20648;-61
2022/08/03 12:47:21;;;;;;;;;;;33.20;46.60;;;;;;5047581;28;19916;-61
2022/08/03 12:49:48;;;;;;;;;;;33.20;48.30;;;;;;5047782;28;19924;-62
2022/08/03 12:52:14;;;;;;;;;;;33.50;47.50;;;;;;5045230;28;19925;-63
2022/08/03 12:54:39;;;;;;;;;;;34.10;47.90;;;;;;5045419;28;19940;-62
2022/08/03 12:57:06;;;;;;;;;;;35.00;45.70;;;;;;5051234;28;19921;-62
2022/08/03 12:59:41;;;;;;;;;;;35.90;45.30;;;;;;5048092;28;19920;-62
2022/08/03 13:02:17;;;;;;;;;;;37.00;42.70;;;;;;5031119;28;19927;-62
2022/08/03 13:04:44;;;;;;;;;;;38.50;41.20;;;;;;5048892;28;19921;-62
2022/08/03 13:07:10;;;;;;;;;;;38.80;39.50;;;;;;5053827;28;19916;-61
2022/08/03 13:09:52;;;;;;;;;;;39.70;38.20;;;;;;5037331;28;19928;-62
2022/08/03 13:12:18;;;;;;;;;;;39.10;36.90;;;;;;5046823;28;19924;-62
2022/08/03 13:14:45;;;;;;;;;;;38.70;38.10;;;;;;5052067;28;19928;-60
2022/08/03 13:17:11;;;;;;;;;;;38.00;37.10;;;;;;5053322;28;19917;-62
2022/08/03 13:19:37;;;;;;;;;;;38.50;38.80;;;;;;5051619;28;19920;-64
2022/08/03 13:22:14;;;;;;;;;;;38.10;39.70;;;;;;5032955;28;19947;-63
2022/08/03 13:24:41;;;;;;;;;;;38.80;38.60;;;;;;5033323;28;19916;-62
2022/08/03 13:27:07;;;;;;;;;;;38.60;37.20;;;;;;5053052;28;19921;-64
2022/08/03 13:29:33;;;;;;;;;;;39.10;37.10;;;;;;5052719;28;19939;-62
2022/08/03 13:31:59;;;;;;;;;;;39.20;37.20;;;;;;5050475;28;20432;-62
2022/08/03 13:34:24;;;;;;;;;;;40.30;35.80;;;;;;5048109;28;20003;-63
2022/08/03 13:36:50;;;;;;;;;;;40.30;35.50;;;;;;5040258;28;19975;-61
2022/08/03 13:39:16;;;;;;;;;;;41.20;33.60;;;;;;5047738;28;20054;-62
2022/08/03 13:41:41;;;;;;;;;;;40.80;33.20;;;;;;5048094;28;20455;-64
2022/08/03 13:44:07;;;;;;;;;;;40.80;34.80;;;;;;5048049;28;20010;-61
2022/08/03 13:46:33;;;;;;;;;;;40.20;33.60;;;;;;5045690;28;19927;-61
2022/08/03 13:48:58;;;;;;;;;;;39.70;34.30;;;;;;5041102;28;19920;-62
2022/08/03 13:51:24;;;;;;;;;;;39.30;35.10;;;;;;5045566;28;20374;-61
2022/08/03 13:53:51;;;;;;;;;;;38.60;35.90;;;;;;5033939;28;19916;-62
2022/08/03 13:56:16;;;;;;;;;;;38.60;37.00;;;;;;5052809;28;19916;-62
2022/08/03 13:58:42;;;;;;;;;;;38.10;35.50;;;;;;5049331;28;19932;-63
2022/08/03 14:01:07;;;;;;;;;;;38.10;36.90;;;;;;5016421;28;19921;-65
2022/08/03 14:03:33;;;;;;;;;;;38.30;37.30;;;;;;5048086;28;19921;-62
2022/08/03 14:05:58;;;;;;;;;;;38.30;37.50;;;;;;5034162;28;19921;-62
2022/08/03 14:08:23;;;;;;;;;;;37.90;36.30;;;;;;5049701;28;19921;-63
2022/08/03 14:10:49;;;;;;;;;;;37.00;38.40;;;;;;5051159;28;19917;-61
2022/08/03 14:13:15;;;;;;;;;;;36.50;38.30;;;;;;5051580;28;20283;-63
2022/08/03 14:15:40;;;;;;;;;;;36.40;38.90;;;;;;5051598;28;20007;-62
2022/08/03 14:18:07;;;;;;;;;;;36.40;38.80;;;;;;5050956;28;19967;-62
2022/08/03 14:20:32;;;;;;;;;;;35.70;39.30;;;;;;5043491;28;19921;-64
2022/08/03 14:22:58;;;;;;;;;;;35.30;40.90;;;;;;5049182;28;19927;-62
2022/08/03 14:25:23;;;;;;;;;;;35.40;40.50;;;;;;5052370;28;19920;-63
2022/08/03 14:27:49;;;;;;;;;;;35.30;40.30;;;;;;5033173;28;19923;-62